Time;durP1;ratioP1;P1;durP2;ratioP2;P2;SDS_P1;SDS_P2;PMS_P1;PMS_P2;Temp;Humidity;BMP_temperature;BMP_pressure;BME280_temperature;BME280_humidity;BME280_pressure;Samples;Min_cycle;Max_cycle;Signal;HPM_P1;HPM_P2
2022/04/23 00:00:17;;;;;;;14.23;7.10;;;11.10;99.90;;;;;;4953558;28;20050;-78
2022/04/23 00:02:43;;;;;;;14.15;6.70;;;11.30;99.90;;;;;;4953012;28;20051;-77
2022/04/23 00:05:10;;;;;;;13.45;6.18;;;11.00;99.90;;;;;;4964042;28;20399;-78
2022/04/23 00:07:36;;;;;;;12.98;6.70;;;11.00;99.90;;;;;;4955735;28;20064;-78
2022/04/23 00:10:01;;;;;;;18.00;6.75;;;11.00;99.90;;;;;;4951938;28;20700;-78
2022/04/23 00:12:27;;;;;;;16.10;6.65;;;10.90;99.90;;;;;;4934068;28;20058;-77
2022/04/23 00:14:53;;;;;;;14.90;6.90;;;10.90;99.90;;;;;;4934061;28;20495;-78
2022/04/23 00:17:19;;;;;;;12.70;6.82;;;10.90;99.90;;;;;;4935705;28;20074;-78
2022/04/23 00:19:47;;;;;;;12.43;6.38;;;11.10;99.90;;;;;;4952270;28;20043;-78
2022/04/23 00:22:13;;;;;;;12.85;6.45;;;10.90;99.90;;;;;;4968757;28;20053;-78
2022/04/23 00:24:39;;;;;;;15.45;7.05;;;10.80;99.90;;;;;;4950813;28;20042;-78
2022/04/23 00:27:04;;;;;;;12.65;6.85;;;10.80;99.90;;;;;;4967909;28;20035;-76
2022/04/23 00:29:30;;;;;;;13.18;6.53;;;10.80;99.90;;;;;;4982524;28;20045;-78
2022/04/23 00:31:56;;;;;;;16.20;6.72;;;10.80;99.90;;;;;;4936334;28;20050;-78
2022/04/23 00:34:22;;;;;;;12.85;6.30;;;10.70;99.90;;;;;;4970785;28;20054;-77
2022/04/23 00:36:48;;;;;;;13.07;6.03;;;10.70;99.90;;;;;;4952007;28;20042;-77
2022/04/23 00:39:13;;;;;;;13.98;6.82;;;10.70;99.90;;;;;;4968449;28;20113;-76
2022/04/23 00:41:46;;;;;;;15.02;7.07;;;10.80;99.90;;;;;;4936009;28;20050;-77
2022/04/23 00:44:12;;;;;;;14.20;6.95;;;10.60;99.90;;;;;;4965749;28;20427;-77
2022/04/23 00:46:38;;;;;;;13.45;7.15;;;10.60;99.90;;;;;;4934331;28;20547;-77
2022/04/23 00:49:06;;;;;;;13.43;7.05;;;10.70;99.90;;;;;;4948062;28;20054;-77
2022/04/23 00:51:32;;;;;;;14.25;7.57;;;10.50;99.90;;;;;;4950677;28;20463;-78
2022/04/23 00:54:01;;;;;;;13.75;7.00;;;10.50;99.90;;;;;;4933774;28;20054;-78
2022/04/23 00:56:27;;;;;;;16.25;7.93;;;10.60;99.90;;;;;;4949569;28;20056;-77
2022/04/23 00:58:54;;;;;;;16.27;7.65;;;10.50;99.90;;;;;;4964753;28;20053;-77
2022/04/23 01:01:23;;;;;;;17.48;7.93;;;10.40;99.90;;;;;;4967163;28;20043;-76
2022/04/23 01:03:50;;;;;;;17.60;7.50;;;10.40;99.90;;;;;;4965142;28;20097;-77
2022/04/23 01:06:17;;;;;;;13.23;7.45;;;10.40;99.90;;;;;;4951061;28;20043;-77
2022/04/23 01:08:43;;;;;;;16.83;7.43;;;10.30;99.90;;;;;;4967274;28;20053;-78
2022/04/23 01:11:08;;;;;;;14.48;7.50;;;10.30;99.90;;;;;;4950341;28;20420;-77
2022/04/23 01:13:34;;;;;;;15.77;8.15;;;10.30;99.90;;;;;;4967205;28;20066;-77
2022/04/23 01:16:02;;;;;;;16.83;8.43;;;10.30;99.90;;;;;;4947983;28;20043;-78
2022/04/23 01:18:29;;;;;;;15.27;7.55;;;10.30;99.90;;;;;;4949664;28;20081;-77
2022/04/23 01:20:56;;;;;;;18.77;9.20;;;10.30;99.90;;;;;;4948696;28;20045;-77
2022/04/23 01:23:22;;;;;;;14.18;8.02;;;10.30;99.90;;;;;;4966250;28;20047;-78
2022/04/23 01:25:54;;;;;;;15.85;8.27;;;10.60;99.90;;;;;;4949031;28;20057;-79
2022/04/23 01:28:28;;;;;;;;;;;10.20;99.90;;;;;;4946903;28;20043;-77
2022/04/23 01:30:57;;;;;;;16.27;7.78;;;10.30;99.90;;;;;;4965299;28;20107;-77
2022/04/23 01:33:22;;;;;;;15.30;8.15;;;10.30;99.90;;;;;;4948420;28;20727;-76
2022/04/23 01:35:48;;;;;;;17.02;9.05;;;10.20;99.90;;;;;;4963847;28;20047;-77
2022/04/23 01:38:14;;;;;;;14.82;8.82;;;10.20;99.90;;;;;;4967345;28;20047;-78
2022/04/23 01:40:40;;;;;;;15.13;8.82;;;10.20;99.90;;;;;;4983704;28;20019;-77
2022/04/23 01:43:10;;;;;;;19.73;9.13;;;10.10;99.90;;;;;;4960046;28;20053;-78
2022/04/23 01:45:37;;;;;;;15.68;8.45;;;10.10;99.90;;;;;;4927765;28;20122;-77
2022/04/23 01:48:03;;;;;;;17.10;9.68;;;10.10;99.90;;;;;;4933339;28;20039;-82
2022/04/23 01:50:29;;;;;;;15.48;8.68;;;10.10;99.90;;;;;;4980345;28;20137;-77
2022/04/23 01:52:55;;;;;;;15.63;9.02;;;9.80;99.90;;;;;;4932148;28;20567;-78
2022/04/23 01:55:20;;;;;;;15.57;8.38;;;10.20;99.90;;;;;;4946230;28;20156;-77
2022/04/23 01:57:46;;;;;;;13.70;8.57;;;10.10;99.90;;;;;;4966352;28;20117;-76
2022/04/23 02:00:15;;;;;;;15.05;9.05;;;10.10;99.90;;;;;;4965235;28;20043;-79
2022/04/23 02:02:42;;;;;;;16.23;9.63;;;10.10;99.90;;;;;;4965683;28;20050;-77
2022/04/23 02:05:09;;;;;;;14.82;8.27;;;10.10;99.90;;;;;;4949146;28;20054;-77
2022/04/23 02:07:39;;;;;;;15.48;9.45;;;10.00;99.90;;;;;;4945680;29;20237;-78
2022/04/23 02:10:10;;;;;;;15.85;9.68;;;10.00;99.90;;;;;;4949454;28;20050;-80
2022/04/23 02:12:38;;;;;;;15.65;9.20;;;9.90;99.90;;;;;;4966066;28;20067;-77
2022/04/23 02:15:09;;;;;;;18.90;9.40;;;10.00;99.90;;;;;;4966678;28;20051;-78
2022/04/23 02:17:42;;;;;;;22.73;9.97;;;10.00;99.90;;;;;;4949568;28;20050;-77
2022/04/23 02:20:10;;;;;;;16.70;9.10;;;10.00;99.90;;;;;;4947506;28;20527;-77
2022/04/23 02:22:37;;;;;;;18.95;10.45;;;9.90;99.90;;;;;;4932851;28;20169;-78
2022/04/23 02:25:05;;;;;;;16.40;9.57;;;9.90;99.90;;;;;;4949295;28;20042;-77
2022/04/23 02:27:51;;;;;;;16.58;10.05;;;9.90;99.90;;;;;;4948329;28;20043;-78
2022/04/23 02:30:19;;;;;;;17.92;9.88;;;9.80;99.90;;;;;;4947860;28;20519;-77
2022/04/23 02:32:45;;;;;;;18.77;10.52;;;9.80;99.90;;;;;;4968062;28;20674;-79
2022/04/23 02:35:14;;;;;;;17.17;10.07;;;9.80;99.90;;;;;;4933013;28;20415;-76
2022/04/23 02:37:42;;;;;;;17.83;9.93;;;9.90;99.90;;;;;;4948438;28;20047;-76
2022/04/23 02:40:08;;;;;;;19.55;10.25;;;9.80;99.90;;;;;;4949444;28;20114;-78
2022/04/23 02:42:36;;;;;;;18.67;10.15;;;9.70;99.90;;;;;;4951976;28;20099;-77
2022/04/23 02:45:03;;;;;;;15.27;9.63;;;9.70;99.90;;;;;;4970358;28;20046;-76
2022/04/23 02:47:50;;;;;;;15.15;9.80;;;9.70;99.90;;;;;;4969804;28;20055;-78
2022/04/23 02:50:27;;;;;;;19.60;10.05;;;9.70;99.90;;;;;;4968512;28;20106;-77
2022/04/23 02:52:57;;;;;;;15.48;9.60;;;9.70;99.90;;;;;;4941362;28;20122;-78
2022/04/23 02:55:24;;;;;;;13.80;8.98;;;9.70;99.90;;;;;;4953549;28;20077;-78
2022/04/23 02:57:51;;;;;;;18.80;10.20;;;9.80;99.90;;;;;;4954163;28;20038;-78
2022/04/23 03:00:17;;;;;;;18.58;9.48;;;10.60;99.90;;;;;;4954143;28;20410;-77
2022/04/23 03:02:44;;;;;;;16.75;10.00;;;9.70;99.90;;;;;;4970064;28;20043;-79
2022/04/23 03:05:11;;;;;;;16.30;10.02;;;9.70;99.90;;;;;;4937438;28;20038;-77
2022/04/23 03:07:37;;;;;;;17.42;9.90;;;9.80;99.90;;;;;;4969045;28;20047;-77
2022/04/23 03:10:07;;;;;;;15.98;8.77;;;9.80;99.90;;;;;;4969058;28;20051;-77
2022/04/23 03:12:36;;;;;;;20.55;10.68;;;9.70;99.90;;;;;;4948821;28;20058;-76
2022/04/23 03:15:03;;;;;;;17.15;9.88;;;9.70;99.90;;;;;;4966926;28;20047;-77
2022/04/23 03:17:31;;;;;;;17.52;9.77;;;9.70;99.90;;;;;;4935753;28;20500;-76
2022/04/23 03:20:00;;;;;;;14.98;9.93;;;9.70;99.90;;;;;;4951989;28;20057;-77
2022/04/23 03:22:26;;;;;;;18.60;10.90;;;9.70;99.90;;;;;;4952691;28;20046;-77
2022/04/23 03:24:52;;;;;;;16.88;9.32;;;9.60;99.90;;;;;;4935243;28;20113;-78
2022/04/23 03:27:18;;;;;;;15.43;9.07;;;9.70;99.90;;;;;;4952544;28;20050;-77
2022/04/23 03:29:44;;;;;;;13.98;8.90;;;9.70;99.90;;;;;;4952701;28;20039;-78
2022/04/23 03:32:10;;;;;;;15.32;9.52;;;9.60;99.90;;;;;;4969769;28;20469;-76
2022/04/23 03:34:36;;;;;;;16.88;9.38;;;9.60;99.90;;;;;;4934019;28;20082;-76
2022/04/23 03:37:02;;;;;;;16.45;10.13;;;9.60;99.90;;;;;;4936425;28;20038;-76
2022/04/23 03:39:28;;;;;;;16.00;8.98;;;9.60;99.90;;;;;;4921182;28;20042;-77
2022/04/23 03:41:56;;;;;;;17.00;9.60;;;9.60;99.90;;;;;;4952273;28;20462;-78
2022/04/23 03:44:22;;;;;;;14.05;9.60;;;9.60;99.90;;;;;;4983297;28;20403;-77
2022/04/23 03:46:48;;;;;;;15.23;9.43;;;9.60;99.90;;;;;;4968642;28;20122;-76
2022/04/23 03:49:13;;;;;;;15.13;9.82;;;9.60;99.90;;;;;;4951844;28;20050;-77
2022/04/23 03:51:39;;;;;;;14.73;9.60;;;9.60;99.90;;;;;;4953520;28;20483;-77
2022/04/23 03:54:04;;;;;;;15.07;8.85;;;9.60;99.90;;;;;;4970653;28;20065;-78
2022/04/23 03:56:31;;;;;;;14.05;8.88;;;9.60;99.90;;;;;;4953058;28;20038;-78
2022/04/23 03:58:56;;;;;;;16.35;9.57;;;9.60;99.90;;;;;;4970383;28;20512;-77
2022/04/23 04:01:22;;;;;;;15.57;10.02;;;9.50;99.90;;;;;;4938809;28;20062;-78
2022/04/23 04:03:48;;;;;;;17.73;9.40;;;9.50;99.90;;;;;;4966696;28;20054;-78
2022/04/23 04:06:13;;;;;;;16.38;9.30;;;9.80;99.90;;;;;;4937553;28;20102;-80
2022/04/23 04:08:39;;;;;;;17.95;9.80;;;9.50;99.90;;;;;;4952504;28;20061;-77
2022/04/23 04:11:04;;;;;;;14.85;9.82;;;9.50;99.90;;;;;;4950404;28;20038;-77
2022/04/23 04:13:30;;;;;;;15.98;9.13;;;9.50;99.90;;;;;;4949347;28;20097;-77
2022/04/23 04:15:56;;;;;;;15.20;9.27;;;9.40;99.90;;;;;;4926495;28;20043;-77
2022/04/23 04:18:26;;;;;;;15.50;9.15;;;9.40;99.90;;;;;;4937986;28;20039;-77
2022/04/23 04:20:53;;;;;;;13.70;9.88;;;9.40;99.90;;;;;;4944046;28;20058;-78
2022/04/23 04:23:20;;;;;;;15.40;10.45;;;9.40;99.90;;;;;;4981438;28;20046;-79
2022/04/23 04:25:47;;;;;;;15.07;9.60;;;9.40;99.90;;;;;;4964712;28;20051;-77
2022/04/23 04:28:13;;;;;;;15.00;9.45;;;9.60;99.90;;;;;;4954687;28;20055;-77
2022/04/23 04:33:22;;;;;;;14.13;9.57;;;9.40;99.90;;;;;;4965495;28;20109;-77
2022/04/23 04:35:51;;;;;;;14.65;9.05;;;9.30;99.90;;;;;;4949467;28;20050;-76
2022/04/23 04:38:16;;;;;;;16.20;9.48;;;9.30;99.90;;;;;;4964015;28;20039;-77
2022/04/23 04:40:42;;;;;;;16.75;10.35;;;9.30;99.90;;;;;;4962977;28;20039;-78
2022/04/23 04:43:08;;;;;;;15.18;9.52;;;9.30;99.90;;;;;;4951217;28;20039;-77
2022/04/23 04:45:33;;;;;;;16.20;10.80;;;9.30;99.90;;;;;;4931003;28;20062;-77
2022/04/23 04:47:59;;;;;;;12.63;9.18;;;9.30;99.90;;;;;;4961206;28;20043;-77
2022/04/23 04:50:25;;;;;;;15.65;9.50;;;9.30;99.90;;;;;;4965053;28;20046;-77
2022/04/23 04:52:50;;;;;;;16.67;9.63;;;9.30;99.90;;;;;;4950465;28;20051;-78
2022/04/23 04:55:16;;;;;;;14.48;9.90;;;9.30;99.90;;;;;;4946779;28;20050;-77
2022/04/23 04:57:42;;;;;;;15.25;9.45;;;9.40;99.90;;;;;;4925886;28;20054;-76
2022/04/23 05:00:08;;;;;;;16.55;9.98;;;9.40;99.90;;;;;;4963690;28;20051;-78
2022/04/23 05:02:34;;;;;;;16.20;10.20;;;9.40;99.90;;;;;;4961908;28;20043;-77
2022/04/23 05:05:00;;;;;;;14.60;9.88;;;9.30;99.90;;;;;;4935162;28;20400;-78
2022/04/23 05:07:25;;;;;;;13.77;10.18;;;9.40;99.90;;;;;;4951208;28;20047;-77
2022/04/23 05:09:51;;;;;;;17.20;9.55;;;9.80;99.90;;;;;;4966460;28;20050;-76
2022/04/23 05:12:17;;;;;;;16.27;10.23;;;10.50;99.90;;;;;;4957864;28;20564;-76
2022/04/23 05:14:43;;;;;;;13.50;9.30;;;11.10;99.90;;;;;;4963546;28;20189;-77
2022/04/23 05:17:09;;;;;;;13.55;9.13;;;11.70;99.90;;;;;;4967423;28;20077;-77
2022/04/23 05:19:35;;;;;;;15.38;9.32;;;12.60;99.90;;;;;;4949511;28;20051;-77
2022/04/23 05:22:01;;;;;;;13.98;8.40;;;13.00;99.90;;;;;;4933201;28;20047;-77
2022/04/23 05:24:26;;;;;;;14.48;8.45;;;13.60;99.90;;;;;;4935243;28;20042;-78
2022/04/23 05:26:52;;;;;;;12.38;8.30;;;14.00;99.90;;;;;;4969314;28;20470;-77
2022/04/23 05:29:18;;;;;;;13.77;8.65;;;14.10;99.90;;;;;;4968798;28;20043;-78
2022/04/23 05:31:43;;;;;;;10.57;7.45;;;14.30;99.90;;;;;;4934843;28;20499;-78
2022/04/23 05:34:09;;;;;;;13.07;8.35;;;14.50;99.90;;;;;;4952064;28;20039;-77
2022/04/23 05:36:38;;;;;;;12.45;7.65;;;14.40;99.90;;;;;;4973033;28;20046;-77
2022/04/23 05:39:04;;;;;;;12.07;7.45;;;14.60;99.90;;;;;;4966660;28;20035;-78
2022/04/23 05:41:31;;;;;;;12.98;7.72;;;14.20;99.90;;;;;;4953505;28;20043;-77
2022/04/23 05:43:58;;;;;;;11.02;7.53;;;13.60;99.90;;;;;;4966408;28;20285;-78
2022/04/23 05:46:24;;;;;;;14.25;7.88;;;13.10;99.90;;;;;;4962455;28;20049;-79
2022/04/23 05:48:49;;;;;;;10.95;7.75;;;12.70;99.90;;;;;;4970729;28;20106;-78
2022/04/23 05:51:15;;;;;;;11.82;8.00;;;12.20;99.90;;;;;;4958033;28;20047;-78
2022/04/23 05:53:41;;;;;;;11.88;8.18;;;12.00;99.90;;;;;;4965859;28;20125;-76
2022/04/23 05:56:07;;;;;;;14.20;8.52;;;12.00;99.90;;;;;;4976248;28;20031;-77
2022/04/23 05:58:36;;;;;;;13.07;8.63;;;12.10;99.90;;;;;;4988746;28;20047;-78
2022/04/23 06:01:02;;;;;;;13.48;8.48;;;11.90;99.90;;;;;;4959135;28;20050;-79
2022/04/23 06:03:28;;;;;;;12.60;8.43;;;11.60;99.90;;;;;;4976330;28;20073;-77
2022/04/23 06:05:54;;;;;;;10.73;7.25;;;11.60;99.90;;;;;;4953817;28;20047;-78
2022/04/23 06:08:20;;;;;;;12.98;8.27;;;11.60;99.90;;;;;;4934735;28;20058;-78
2022/04/23 06:10:46;;;;;;;12.65;8.45;;;11.50;99.90;;;;;;4933491;28;20046;-77
2022/04/23 06:13:12;;;;;;;12.75;8.10;;;11.40;99.90;;;;;;4979039;28;20058;-79
2022/04/23 06:15:38;;;;;;;12.93;9.05;;;11.20;99.90;;;;;;4948501;28;20125;-76
2022/04/23 06:18:04;;;;;;;14.25;8.70;;;11.30;99.90;;;;;;4954852;28;20054;-77
2022/04/23 06:20:29;;;;;;;13.52;8.48;;;11.10;99.90;;;;;;4987492;28;20045;-75
2022/04/23 06:22:55;;;;;;;13.88;8.52;;;11.40;99.90;;;;;;4974871;28;20363;-75
2022/04/23 06:25:21;;;;;;;13.77;7.18;;;11.90;99.90;;;;;;4956858;28;20426;-79
2022/04/23 06:27:47;;;;;;;12.95;8.32;;;12.90;99.90;;;;;;4955664;28;20039;-77
2022/04/23 06:30:12;;;;;;;13.10;8.40;;;12.80;99.90;;;;;;4968498;28;20043;-80
2022/04/23 06:32:39;;;;;;;11.57;7.88;;;13.40;99.90;;;;;;4931811;28;20752;-79
2022/04/23 06:35:06;;;;;;;11.13;8.15;;;14.20;99.90;;;;;;4947360;28;20094;-80
2022/04/23 06:37:42;;;;;;;12.45;8.27;;;14.10;99.90;;;;;;4952910;28;20051;-80
2022/04/23 06:40:10;;;;;;;11.95;7.53;;;14.10;99.90;;;;;;4948403;28;20043;-76
2022/04/23 06:42:36;;;;;;;14.45;8.50;;;14.30;99.90;;;;;;4958816;28;20058;-77
2022/04/23 06:45:03;;;;;;;13.75;8.00;;;14.50;99.90;;;;;;4967175;28;20053;-76
2022/04/23 06:47:28;;;;;;;12.00;8.05;;;14.10;99.90;;;;;;4937645;28;20047;-74
2022/04/23 06:49:57;;;;;;;13.13;8.57;;;14.10;99.90;;;;;;4949920;28;20448;-74
2022/04/23 06:52:25;;;;;;;14.25;8.88;;;14.20;99.90;;;;;;4950981;28;20031;-78
2022/04/23 06:54:52;;;;;;;11.93;8.10;;;14.00;99.90;;;;;;4945321;28;20157;-77
2022/04/23 06:57:18;;;;;;;13.43;8.60;;;14.60;99.90;;;;;;4947631;28;20684;-80
2022/04/23 06:59:43;;;;;;;15.85;8.80;;;14.60;99.90;;;;;;4965754;28;20045;-75
2022/04/23 07:02:09;;;;;;;13.00;8.52;;;14.60;99.90;;;;;;4932879;28;20074;-76
2022/04/23 07:04:35;;;;;;;15.00;8.73;;;15.20;99.90;;;;;;4962479;28;20070;-77
2022/04/23 07:07:00;;;;;;;13.70;8.77;;;15.20;99.90;;;;;;4949030;28;20082;-77
2022/04/23 07:09:28;;;;;;;13.50;9.07;;;15.60;99.90;;;;;;4929406;28;20108;-77
2022/04/23 07:11:55;;;;;;;11.20;8.13;;;15.80;99.90;;;;;;4976033;28;20145;-77
2022/04/23 07:14:23;;;;;;;13.95;9.60;;;15.40;99.90;;;;;;4957676;28;20050;-77
2022/04/23 07:16:51;;;;;;;13.32;9.02;;;14.90;99.90;;;;;;4957156;28;20056;-77
2022/04/23 07:19:17;;;;;;;14.40;9.70;;;14.30;99.90;;;;;;4947641;28;20414;-78
2022/04/23 07:21:43;;;;;;;13.65;9.00;;;13.90;99.90;;;;;;4928776;28;20390;-76
2022/04/23 07:24:10;;;;;;;12.63;8.52;;;13.70;99.90;;;;;;4951929;28;20046;-77
2022/04/23 07:26:40;;;;;;;13.77;9.02;;;13.70;99.90;;;;;;4966782;28;20057;-77
2022/04/23 07:29:08;;;;;;;13.77;8.43;;;13.70;99.90;;;;;;4963196;28;20739;-77
2022/04/23 07:31:36;;;;;;;13.07;9.13;;;13.90;99.90;;;;;;4951104;28;20052;-80
2022/04/23 07:39:31;;;;;;;14.25;9.02;;;14.30;99.90;;;;;;4964805;28;20047;-89
2022/04/23 07:41:58;;;;;;;14.20;8.00;;;14.20;99.90;;;;;;4950796;28;20046;-82
2022/04/23 07:44:26;;;;;;;12.43;8.27;;;14.60;99.90;;;;;;4936533;28;20442;-82
2022/04/23 07:46:52;;;;;;;12.68;8.63;;;14.60;99.90;;;;;;4969410;28;20043;-90
2022/04/23 07:49:18;;;;;;;12.07;8.65;;;14.40;99.90;;;;;;4936637;28;20716;-85
2022/04/23 07:51:46;;;;;;;12.77;8.48;;;14.60;99.90;;;;;;4970286;28;20042;-84
2022/04/23 07:54:13;;;;;;;11.48;8.18;;;14.60;99.90;;;;;;4970264;28;20042;-84
2022/04/23 07:56:39;;;;;;;13.80;8.27;;;14.70;99.90;;;;;;4952058;28;20046;-82
2022/04/23 07:59:04;;;;;;;11.40;8.43;;;14.70;99.90;;;;;;4968640;28;20467;-82
2022/04/23 08:01:39;;;;;;;13.50;8.43;;;14.80;99.90;;;;;;4972633;28;20062;-81
2022/04/23 08:04:04;;;;;;;12.30;8.50;;;14.80;99.90;;;;;;4967786;28;20039;-80
2022/04/23 08:06:31;;;;;;;12.07;8.40;;;14.80;99.90;;;;;;4954504;28;20043;-81
2022/04/23 08:08:57;;;;;;;13.35;8.40;;;14.80;99.90;;;;;;4955040;28;20069;-80
2022/04/23 08:11:22;;;;;;;12.52;8.68;;;14.90;99.90;;;;;;4953130;28;20055;-83
2022/04/23 08:13:50;;;;;;;12.20;8.52;;;15.10;99.90;;;;;;4974668;28;20053;-80
2022/04/23 08:16:16;;;;;;;15.05;8.95;;;15.20;99.90;;;;;;4965130;28;20053;-79
2022/04/23 08:18:41;;;;;;;16.27;8.75;;;15.20;99.70;;;;;;4949184;28;20055;-80
2022/04/23 08:21:07;;;;;;;14.45;8.50;;;15.40;99.50;;;;;;4987816;28;20509;-82
2022/04/23 08:23:33;;;;;;;13.40;8.80;;;15.40;98.70;;;;;;4959929;28;20057;-87
2022/04/23 08:26:03;;;;;;;12.93;8.02;;;15.40;98.90;;;;;;4953572;28;20035;-82
2022/04/23 08:31:14;;;;;;;12.18;8.45;;;15.40;98.90;;;;;;4971549;28;20051;-80
2022/04/23 08:33:58;;;;;;;13.07;8.13;;;15.40;98.50;;;;;;4971194;28;20566;-81
2022/04/23 08:36:32;;;;;;;13.13;8.38;;;15.50;98.10;;;;;;4954792;28;20054;-82
2022/04/23 08:38:59;;;;;;;11.73;8.10;;;15.50;97.90;;;;;;4933800;28;20050;-81
2022/04/23 08:41:28;;;;;;;12.50;8.07;;;15.70;97.50;;;;;;4947893;28;20077;-83
2022/04/23 08:44:02;;;;;;;11.82;8.60;;;15.60;97.40;;;;;;4964127;28;20109;-79
2022/04/23 08:46:28;;;;;;;12.57;8.15;;;15.60;97.70;;;;;;4948934;28;20055;-79
2022/04/23 08:49:17;;;;;;;11.02;8.02;;;15.80;98.10;;;;;;4956687;28;20472;-84
2022/04/23 08:51:51;;;;;;;12.48;8.25;;;15.90;97.20;;;;;;4939381;28;20126;-80
2022/04/23 08:54:17;;;;;;;14.13;8.15;;;16.00;97.60;;;;;;4952346;28;20502;-81
2022/04/23 08:56:46;;;;;;;13.48;8.65;;;16.20;97.70;;;;;;4968719;28;20042;-81
2022/04/23 08:59:13;;;;;;;10.98;7.93;;;16.30;96.50;;;;;;4946774;28;20050;-83
2022/04/23 09:01:39;;;;;;;14.27;8.82;;;16.30;96.10;;;;;;4966897;28;20558;-78
2022/04/23 09:04:06;;;;;;;15.23;8.50;;;16.50;97.00;;;;;;4936266;28;20054;-81
2022/04/23 09:06:34;;;;;;;14.23;8.57;;;16.40;96.10;;;;;;4953713;28;20047;-77
2022/04/23 09:09:14;;;;;;;11.82;8.52;;;16.50;96.50;;;;;;4948165;28;20053;-81
2022/04/23 09:11:45;;;;;;;14.97;8.70;;;16.70;96.90;;;;;;4966979;28;20137;-80
2022/04/23 09:14:28;;;;;;;11.68;8.52;;;16.90;96.80;;;;;;4967846;28;20071;-87
2022/04/23 09:25:39;;;;;;;14.13;8.60;;;17.00;95.40;;;;;;4963245;28;20340;-80
2022/04/23 09:28:29;;;;;;;11.38;9.02;;;17.10;95.60;;;;;;4946598;28;20062;-79
2022/04/23 09:30:55;;;;;;;11.60;8.57;;;17.30;95.00;;;;;;4933334;28;20035;-80
2022/04/23 09:33:27;;;;;;;16.85;8.57;;;17.40;95.40;;;;;;4948540;28;20404;-80
2022/04/23 09:35:58;;;;;;;12.68;8.80;;;17.40;94.30;;;;;;4932071;28;20057;-81
2022/04/23 09:38:27;;;;;;;13.50;9.13;;;17.30;93.50;;;;;;4949830;28;20114;-80
2022/04/23 09:40:59;;;;;;;12.30;8.55;;;17.30;94.10;;;;;;4966972;28;20084;-84
2022/04/23 09:43:32;;;;;;;15.40;8.60;;;17.20;94.10;;;;;;4962517;28;20089;-80
2022/04/23 09:46:06;;;;;;;12.77;8.77;;;17.20;94.80;;;;;;4944806;28;20613;-79
2022/04/23 09:48:32;;;;;;;12.30;8.25;;;17.30;93.90;;;;;;4914892;28;20073;-82
2022/04/23 09:51:01;;;;;;;13.73;9.63;;;17.40;94.20;;;;;;4931983;28;20496;-79
2022/04/23 09:53:30;;;;;;;13.18;8.68;;;17.50;93.00;;;;;;4946058;28;20054;-82
2022/04/23 09:56:00;;;;;;;14.55;8.02;;;17.40;92.70;;;;;;4932834;28;20046;-79
2022/04/23 09:58:29;;;;;;;13.43;9.20;;;17.50;92.20;;;;;;4931182;28;20408;-78
2022/04/23 10:00:56;;;;;;;10.73;8.07;;;17.50;93.00;;;;;;4932187;28;20531;-81
2022/04/23 10:03:32;;;;;;;18.35;7.68;;;17.40;92.20;;;;;;4929815;28;20043;-79
2022/04/23 10:05:59;;;;;;;12.25;7.47;;;17.50;91.40;;;;;;4947677;28;20133;-81
2022/04/23 10:08:30;;;;;;;11.32;7.97;;;17.90;91.80;;;;;;4932464;28;20043;-81
2022/04/23 10:11:06;;;;;;;11.47;7.90;;;17.80;90.80;;;;;;4931157;28;20126;-80
2022/04/23 10:13:34;;;;;;;13.27;7.50;;;17.80;90.30;;;;;;4934613;28;20720;-80
2022/04/23 10:16:03;;;;;;;12.38;7.75;;;17.80;88.70;;;;;;4946997;28;20080;-80
2022/04/23 10:18:29;;;;;;;13.93;7.13;;;17.60;88.00;;;;;;4938413;28;20446;-84
2022/04/23 10:20:58;;;;;;;11.10;8.20;;;17.50;87.60;;;;;;4967768;28;20042;-75
2022/04/23 10:23:46;;;;;;;12.15;8.48;;;17.60;89.20;;;;;;4946633;28;20038;-79
2022/04/23 10:26:21;;;;;;;12.82;8.10;;;17.60;89.30;;;;;;4951875;28;20407;-79
2022/04/23 10:28:48;;;;;;;10.65;7.40;;;17.40;87.30;;;;;;4949985;28;20031;-80
2022/04/23 10:31:16;;;;;;;24.00;9.35;;;17.40;88.60;;;;;;4953563;28;20503;-81
2022/04/23 10:33:46;;;;;;;11.27;7.82;;;17.40;87.20;;;;;;4960785;28;20057;-82
2022/04/23 10:36:13;;;;;;;11.30;8.38;;;17.40;89.80;;;;;;4951562;28;20077;-84
2022/04/23 10:38:51;;;;;;;10.80;8.30;;;17.50;88.70;;;;;;4947180;28;20516;-82
2022/04/23 10:41:19;;;;;;;11.80;8.40;;;17.60;88.60;;;;;;4932574;28;20047;-78
2022/04/23 10:44:06;;;;;;;13.35;8.00;;;17.80;88.10;;;;;;4961624;28;20066;-78
2022/04/23 10:46:40;;;;;;;11.77;7.80;;;17.70;85.20;;;;;;4938614;28;20074;-80
2022/04/23 10:49:22;;;;;;;12.48;7.70;;;17.60;84.30;;;;;;4946164;28;20471;-80
2022/04/23 10:51:55;;;;;;;11.90;8.48;;;17.50;84.00;;;;;;4944304;28;20102;-81
2022/04/23 10:54:41;;;;;;;11.07;7.43;;;17.50;84.50;;;;;;4946331;28;20756;-82
2022/04/23 10:57:10;;;;;;;13.65;6.88;;;17.50;82.40;;;;;;4964314;28;20523;-82
2022/04/23 10:59:40;;;;;;;10.48;7.47;;;17.50;82.80;;;;;;4945425;28;20390;-82
2022/04/23 11:02:13;;;;;;;10.38;7.43;;;17.50;84.40;;;;;;4932006;28;20495;-77
2022/04/23 11:13:28;;;;;;;16.52;8.45;;;17.80;81.80;;;;;;4949474;28;20113;-78
2022/04/23 11:16:19;;;;;;;11.10;7.80;;;17.50;81.20;;;;;;4948086;28;20578;-80
2022/04/23 11:18:46;;;;;;;11.55;7.47;;;17.50;81.10;;;;;;4935218;28;20055;-80
2022/04/23 11:21:23;;;;;;;9.60;6.65;;;17.60;83.00;;;;;;4969659;28;20074;-80
2022/04/23 11:23:56;;;;;;;13.98;7.85;;;17.70;81.40;;;;;;4952256;28;20093;-78
2022/04/23 11:26:39;;;;;;;11.93;7.68;;;17.80;83.20;;;;;;4955426;28;20047;-84
2022/04/23 11:29:05;;;;;;;11.57;7.65;;;17.90;81.90;;;;;;4951935;28;20133;-81
2022/04/23 11:31:31;;;;;;;11.15;7.97;;;18.00;83.50;;;;;;4936319;28;20050;-83
2022/04/23 11:33:59;;;;;;;11.30;7.50;;;18.10;82.80;;;;;;4937459;28;20037;-81
2022/04/23 11:36:30;;;;;;;11.15;7.22;;;18.40;82.80;;;;;;4967316;28;20038;-79
2022/04/23 11:38:57;;;;;;;11.55;7.38;;;18.50;80.80;;;;;;4954024;28;20043;-83
2022/04/23 11:41:29;;;;;;;12.45;7.47;;;18.30;77.40;;;;;;4953564;28;20069;-80
2022/04/23 11:43:55;;;;;;;15.10;7.78;;;18.20;79.00;;;;;;4953554;28;20125;-82
2022/04/23 11:46:21;;;;;;;10.60;7.32;;;18.00;78.60;;;;;;4969939;28;20030;-81
2022/04/23 11:48:48;;;;;;;11.57;7.20;;;17.90;77.90;;;;;;4936826;28;20058;-79
2022/04/23 11:51:20;;;;;;;17.15;6.75;;;17.80;78.00;;;;;;4955014;28;20046;-80
2022/04/23 11:53:58;;;;;;;12.50;7.30;;;17.70;77.50;;;;;;4968140;28;20174;-77
2022/04/23 11:56:29;;;;;;;11.63;6.45;;;17.70;79.90;;;;;;4939651;28;20047;-79
2022/04/23 11:58:57;;;;;;;10.80;7.03;;;17.80;79.80;;;;;;4953472;28;20047;-80
2022/04/23 12:01:24;;;;;;;10.90;7.70;;;17.80;77.80;;;;;;4973500;28;20034;-79
2022/04/23 12:03:51;;;;;;;12.80;7.68;;;17.90;78.00;;;;;;4952839;28;20047;-81
2022/04/23 12:06:17;;;;;;;10.85;7.45;;;18.00;78.60;;;;;;4965823;28;20077;-79
2022/04/23 12:08:43;;;;;;;11.18;6.88;;;18.00;78.50;;;;;;4972961;28;20465;-77
2022/04/23 12:11:28;;;;;;;14.10;7.95;;;18.00;78.10;;;;;;4954780;28;20054;-78
2022/04/23 12:13:55;;;;;;;12.07;6.97;;;18.00;77.90;;;;;;4967357;28;20047;-77
2022/04/23 12:16:41;;;;;;;11.02;6.78;;;18.00;77.60;;;;;;4953458;28;20046;-79
2022/04/23 12:19:07;;;;;;;11.02;7.10;;;18.00;78.90;;;;;;4951519;28;20396;-82
2022/04/23 12:21:34;;;;;;;9.55;6.57;;;18.20;78.70;;;;;;4952303;28;20049;-80
2022/04/23 12:24:01;;;;;;;11.18;6.82;;;18.20;77.60;;;;;;4968220;28;20415;-81
2022/04/23 12:26:31;;;;;;;13.07;7.00;;;18.30;77.50;;;;;;4969426;28;20113;-81
2022/04/23 12:42:27;;;;;;;14.50;7.63;;;18.40;75.60;;;;;;4961275;28;20055;-79
2022/04/23 12:44:53;;;;;;;11.45;6.13;;;18.40;76.10;;;;;;4927930;28;20042;-80
2022/04/23 12:47:30;;;;;;;8.60;6.35;;;18.30;73.20;;;;;;4959271;28;20522;-80
2022/04/23 12:50:00;;;;;;;12.07;6.97;;;18.20;74.80;;;;;;4938206;28;20046;-79
2022/04/23 12:52:44;;;;;;;10.90;5.95;;;18.20;74.90;;;;;;4950322;28;20411;-86
2022/04/23 12:55:36;;;;;;;12.88;6.40;;;18.20;74.30;;;;;;4958714;28;20051;-80
2022/04/23 12:58:02;;;;;;;11.30;6.10;;;18.20;74.80;;;;;;4963959;28;20043;-80
2022/04/23 13:00:28;;;;;;;11.75;6.47;;;18.20;74.90;;;;;;4957615;28;20224;-83
2022/04/23 13:03:00;;;;;;;14.68;6.18;;;18.30;75.40;;;;;;4962650;28;20061;-82
2022/04/23 13:05:27;;;;;;;8.45;5.97;;;18.50;75.70;;;;;;4951642;28;20061;-81
2022/04/23 13:10:38;;;;;;;10.40;5.65;;;18.50;74.60;;;;;;4956901;28;20050;-79
2022/04/23 13:13:07;;;;;;;11.82;5.75;;;18.40;73.10;;;;;;4941696;28;20097;-81
2022/04/23 13:15:35;;;;;;;8.77;5.60;;;18.40;71.80;;;;;;4943612;28;20089;-80
2022/04/23 13:18:01;;;;;;;11.55;5.57;;;18.30;71.60;;;;;;4963905;28;20047;-77
2022/04/23 13:20:27;;;;;;;11.90;5.38;;;18.30;73.20;;;;;;4954491;28;20046;-80
2022/04/23 13:22:58;;;;;;;9.52;5.13;;;18.40;74.70;;;;;;4961664;28;20098;-79
2022/04/23 13:25:25;;;;;;;10.40;5.80;;;18.50;74.40;;;;;;4950010;28;20038;-80
2022/04/23 13:27:51;;;;;;;10.02;5.30;;;18.50;72.70;;;;;;4945367;28;20055;-82